createdAt,value
2019-02-14T00:00:35.131Z,12.47
2019-02-14T00:05:53.789Z,10.93
2019-02-14T00:11:12.379Z,10.50
2019-02-14T00:16:31.016Z,10.53
2019-02-14T00:21:49.520Z,13.17
2019-02-14T00:27:08.099Z,11.43
2019-02-14T00:32:26.761Z,11.13
2019-02-14T00:37:45.492Z,13.07
2019-02-14T00:43:04.138Z,13.60
2019-02-14T00:48:22.774Z,10.17
2019-02-14T00:53:41.266Z,12.93
2019-02-14T00:58:59.954Z,14.00
2019-02-14T01:04:18.645Z,13.17
2019-02-14T01:09:37.595Z,11.35
2019-02-14T01:14:56.165Z,18.17
2019-02-14T01:20:14.833Z,12.60
2019-02-14T01:25:33.417Z,12.07
2019-02-14T01:30:52.051Z,15.47
2019-02-14T01:36:10.699Z,14.37
2019-02-14T01:41:29.293Z,15.58
2019-02-14T01:46:47.912Z,15.30
2019-02-14T01:52:06.567Z,13.57
2019-02-14T01:57:25.228Z,14.77
2019-02-14T02:02:43.876Z,10.70
2019-02-14T02:08:02.505Z,14.13
2019-02-14T02:13:21.068Z,12.67
2019-02-14T02:18:40.180Z,12.77
2019-02-14T02:23:58.755Z,11.93
2019-02-14T02:29:17.792Z,13.37
2019-02-14T02:34:36.430Z,10.77
2019-02-14T02:39:55.056Z,9.47
2019-02-14T02:45:13.953Z,11.73
2019-02-14T02:50:32.597Z,11.30
2019-02-14T02:55:51.242Z,11.27
2019-02-14T03:01:09.857Z,8.63
2019-02-14T03:06:28.511Z,12.13
2019-02-14T03:11:47.096Z,11.97
2019-02-14T03:17:05.678Z,10.97
2019-02-14T03:22:24.310Z,9.40
2019-02-14T03:27:43.022Z,10.83
2019-02-14T03:33:01.571Z,13.00
2019-02-14T03:38:20.167Z,11.10
2019-02-14T03:43:38.740Z,12.47
2019-02-14T03:48:57.333Z,9.97
2019-02-14T03:54:15.969Z,14.53
2019-02-14T03:59:34.863Z,7.43
2019-02-14T04:04:53.494Z,12.88
2019-02-14T04:10:15.730Z,11.77
2019-02-14T04:15:34.293Z,11.27
2019-02-14T04:20:52.863Z,12.27
2019-02-14T04:26:11.418Z,12.13
2019-02-14T04:31:29.988Z,9.93
2019-02-14T04:36:48.636Z,11.93
2019-02-14T04:42:07.506Z,9.73
2019-02-14T04:47:26.011Z,12.07
2019-02-14T04:52:44.654Z,17.30
2019-02-14T04:58:03.300Z,12.43
2019-02-14T05:03:21.855Z,9.23
2019-02-14T05:08:40.485Z,10.77
2019-02-14T05:13:59.170Z,10.77
2019-02-14T05:19:17.990Z,11.80
2019-02-14T05:24:38.106Z,11.30
2019-02-14T05:29:56.682Z,11.17
2019-02-14T05:35:15.307Z,16.63
2019-02-14T05:40:33.931Z,13.90
2019-02-14T05:45:52.844Z,10.30
2019-02-14T05:51:11.953Z,11.07
2019-02-14T05:56:30.539Z,11.43
2019-02-14T06:01:50.648Z,10.08
2019-02-14T06:07:09.286Z,7.87
2019-02-14T06:12:28.063Z,8.87
2019-02-14T06:17:49.686Z,11.23
2019-02-14T06:23:08.226Z,7.83
2019-02-14T06:28:29.938Z,8.00
2019-02-14T06:33:48.823Z,9.57
2019-02-14T06:39:10.207Z,12.13
2019-02-14T06:44:28.910Z,11.37
2019-02-14T06:49:51.578Z,15.80
2019-02-14T06:55:10.500Z,9.20
2019-02-14T07:00:29.112Z,10.10
2019-02-14T07:05:52.004Z,21.83
2019-02-14T07:11:10.754Z,10.27
2019-02-14T07:16:29.244Z,11.07
2019-02-14T07:21:47.718Z,11.40
2019-02-14T07:27:06.363Z,12.60
2019-02-14T07:32:25.006Z,9.77
2019-02-14T07:37:43.552Z,12.83
2019-02-14T07:43:02.248Z,7.07
2019-02-14T07:48:20.871Z,9.70
2019-02-14T07:53:39.412Z,7.83
2019-02-14T07:58:57.885Z,13.17
2019-02-14T08:04:16.501Z,5.57
2019-02-14T08:09:35.405Z,7.13
2019-02-14T08:14:53.955Z,6.27
2019-02-14T08:20:15.006Z,8.63
2019-02-14T08:25:33.605Z,5.80
2019-02-14T08:30:52.143Z,7.40
2019-02-14T08:36:10.771Z,7.10
2019-02-14T08:41:29.312Z,6.85
2019-02-14T08:46:47.888Z,5.97
2019-02-14T08:52:06.495Z,6.70
2019-02-14T08:57:25.125Z,7.63
2019-02-14T09:02:43.744Z,7.53
2019-02-14T09:08:02.381Z,8.07
2019-02-14T09:13:21.030Z,6.87
2019-02-14T09:18:39.589Z,8.47
2019-02-14T09:23:58.406Z,7.13
2019-02-14T09:29:16.877Z,5.10
2019-02-14T09:34:35.432Z,4.30
2019-02-14T09:39:53.969Z,8.20
2019-02-14T09:45:13.910Z,5.23
2019-02-14T09:50:32.462Z,4.90
2019-02-14T09:55:51.003Z,4.57
2019-02-14T10:01:09.553Z,8.53
2019-02-14T10:06:36.311Z,4.20
2019-02-14T10:11:48.544Z,7.80
2019-02-14T10:17:07.416Z,7.90
2019-02-14T10:22:25.956Z,5.70
2019-02-14T10:27:44.581Z,7.77
2019-02-14T10:33:03.493Z,6.20
2019-02-14T10:38:22.799Z,4.40
2019-02-14T10:43:48.653Z,7.20
2019-02-14T10:49:01.950Z,6.10
2019-02-14T10:54:20.514Z,5.33
2019-02-14T10:59:39.151Z,2.83
2019-02-14T11:04:57.768Z,9.80
2019-02-14T11:10:16.684Z,4.70
2019-02-14T11:15:35.413Z,4.05
2019-02-14T11:20:53.961Z,6.97
2019-02-14T11:26:12.660Z,8.13
2019-02-14T11:31:31.223Z,5.05
2019-02-14T11:36:49.795Z,3.47
2019-02-14T11:42:08.419Z,1.03
2019-02-14T11:47:26.981Z,3.47
2019-02-14T11:52:45.578Z,1.60
2019-02-14T11:58:04.227Z,2.53
2019-02-14T12:03:22.867Z,1.20
2019-02-14T12:08:53.033Z,2.57
2019-02-14T12:14:01.751Z,2.67
2019-02-14T12:19:20.309Z,2.33
2019-02-14T12:24:38.855Z,3.43
2019-02-14T12:29:57.436Z,1.57
2019-02-14T12:35:15.966Z,3.55
2019-02-14T12:40:34.572Z,1.93
2019-02-14T12:45:53.393Z,3.53
2019-02-14T12:51:12.024Z,1.50
2019-02-14T12:56:30.672Z,1.03
2019-02-14T13:01:49.317Z,1.20
2019-02-14T13:07:07.973Z,2.10
2019-02-14T13:12:26.625Z,1.87
2019-02-14T13:17:45.250Z,1.40
2019-02-14T13:23:04.167Z,1.93
2019-02-14T13:28:22.877Z,1.40
2019-02-14T13:33:41.860Z,2.98
2019-02-14T13:39:00.497Z,2.07
2019-02-14T13:44:19.031Z,1.63
2019-02-14T13:49:37.595Z,3.17
2019-02-14T13:54:56.072Z,1.33
2019-02-14T14:00:30.373Z,2.37
2019-02-14T14:05:55.129Z,1.03
2019-02-14T14:11:16.188Z,1.67
2019-02-14T14:16:34.754Z,3.03
2019-02-14T14:21:54.955Z,1.30
2019-02-14T14:27:13.524Z,1.70
2019-02-14T14:32:32.089Z,2.33
2019-02-14T14:37:50.583Z,1.00
2019-02-14T14:43:10.778Z,2.13
2019-02-14T14:48:31.053Z,1.27
2019-02-14T14:53:49.682Z,2.30
2019-02-14T14:59:08.248Z,3.77
2019-02-14T15:04:26.736Z,1.73
2019-02-14T15:09:46.912Z,0.97
2019-02-14T15:15:07.034Z,1.03
2019-02-14T15:20:25.607Z,1.37
2019-02-14T15:25:44.254Z,2.50
2019-02-14T15:31:03.016Z,1.10
2019-02-14T15:36:23.784Z,2.37
2019-02-14T15:41:42.032Z,2.50
2019-02-14T15:47:00.705Z,1.20
2019-02-14T15:52:20.708Z,5.67
2019-02-14T15:57:42.254Z,3.53
2019-02-14T16:03:00.503Z,2.13
2019-02-14T16:08:19.697Z,1.80
2019-02-14T16:13:44.818Z,6.30
2019-02-14T16:19:03.448Z,1.83
2019-02-14T16:24:21.983Z,4.23
2019-02-14T16:29:40.663Z,2.35
2019-02-14T16:34:59.306Z,3.60
2019-02-14T16:40:27.867Z,3.20
2019-02-14T16:45:42.910Z,5.13
2019-02-14T16:51:01.368Z,3.77
2019-02-14T16:56:19.980Z,2.87
2019-02-14T17:01:38.537Z,3.13
2019-02-14T17:06:57.146Z,6.30
2019-02-14T17:12:17.514Z,2.63
2019-02-14T17:17:39.278Z,5.07
2019-02-14T17:22:57.897Z,4.43
2019-02-14T17:28:16.431Z,3.27
2019-02-14T17:33:35.018Z,1.97
2019-02-14T17:38:53.560Z,6.20
2019-02-14T17:44:12.092Z,3.57
2019-02-14T17:49:30.709Z,4.20
2019-02-14T17:54:49.586Z,6.10
2019-02-14T18:00:11.513Z,4.83
2019-02-14T18:05:30.060Z,7.73
2019-02-14T18:10:54.783Z,5.30
2019-02-14T18:16:09.207Z,4.93
2019-02-14T18:21:27.824Z,5.83
2019-02-14T18:26:46.743Z,4.55
2019-02-14T18:32:05.372Z,6.37
2019-02-14T18:37:23.843Z,8.03
2019-02-14T18:42:44.691Z,7.13
2019-02-14T18:48:03.368Z,3.23
2019-02-14T18:53:25.052Z,5.23
2019-02-14T18:58:43.547Z,4.67
2019-02-14T19:04:02.173Z,7.83
2019-02-14T19:09:20.791Z,9.47
2019-02-14T19:14:39.335Z,11.63
2019-02-14T19:19:58.151Z,4.70
2019-02-14T19:25:17.050Z,4.90
2019-02-14T19:30:35.675Z,5.47
2019-02-14T19:35:54.252Z,6.33
2019-02-14T19:41:12.742Z,5.47
2019-02-14T19:46:31.438Z,6.27
2019-02-14T19:51:49.921Z,3.47
2019-02-14T19:57:08.533Z,5.40
2019-02-14T20:02:29.156Z,4.53
2019-02-14T20:07:47.791Z,4.07
2019-02-14T20:13:06.421Z,4.08
2019-02-14T20:18:25.039Z,4.17
2019-02-14T20:23:44.520Z,4.47
2019-02-14T20:29:03.066Z,5.77
2019-02-14T20:34:25.921Z,4.25
2019-02-14T20:39:44.447Z,3.80
2019-02-14T20:45:03.179Z,4.30
2019-02-14T20:50:21.772Z,4.57
2019-02-14T20:55:41.765Z,4.23
2019-02-14T21:01:01.244Z,9.07
2019-02-14T21:06:19.860Z,7.37
2019-02-14T21:11:38.497Z,5.70
2019-02-14T21:16:57.048Z,7.30
2019-02-14T21:22:18.556Z,6.47
2019-02-14T21:27:36.010Z,3.73
2019-02-14T21:32:54.662Z,4.53
2019-02-14T21:38:35.407Z,5.03
2019-02-14T21:43:53.991Z,4.53
2019-02-14T21:49:12.681Z,4.03
2019-02-14T21:54:31.220Z,3.53
2019-02-14T21:59:49.768Z,6.57
2019-02-14T22:05:09.991Z,4.03
2019-02-14T22:10:28.692Z,3.93
2019-02-14T22:15:47.361Z,5.50
2019-02-14T22:21:06.011Z,9.37
2019-02-14T22:26:24.642Z,5.37
2019-02-14T22:31:43.178Z,4.83
2019-02-14T22:37:01.718Z,4.40
2019-02-14T22:42:21.165Z,3.50
2019-02-14T22:47:41.613Z,3.90
2019-02-14T22:53:00.361Z,3.00
2019-02-14T22:58:18.902Z,3.93
2019-02-14T23:03:37.554Z,3.53
2019-02-14T23:08:56.197Z,4.77
2019-02-14T23:14:14.810Z,4.17
2019-02-14T23:19:33.434Z,5.00
2019-02-14T23:24:52.062Z,3.53
2019-02-14T23:30:12.266Z,3.83
2019-02-14T23:35:30.987Z,3.67
2019-02-14T23:40:49.722Z,3.30
2019-02-14T23:46:08.825Z,5.13
2019-02-14T23:51:27.446Z,2.43
2019-02-14T23:56:45.983Z,3.77
